Time;durP1;ratioP1;P1;durP2;ratioP2;P2;SDS_P1;SDS_P2;PMS_P1;PMS_P2;Temp;Humidity;BMP_temperature;BMP_pressure;BME280_temperature;BME280_humidity;BME280_pressure;Samples;Min_cycle;Max_cycle;Signal;HPM_P1;HPM_P2
2022/05/31 00:00:15;;;;;;;0.28;0.28;;;11.40;99.90;;;;;;4973208;28;20030;-69
2022/05/31 00:02:42;;;;;;;0.10;0.10;;;11.40;99.90;;;;;;4974539;28;20054;-69
2022/05/31 00:05:10;;;;;;;0.22;0.15;;;11.40;99.90;;;;;;4973335;28;20591;-68
2022/05/31 00:07:39;;;;;;;0.00;0.00;;;11.40;99.90;;;;;;4989489;28;20039;-69
2022/05/31 00:10:08;;;;;;;0.00;0.00;;;11.40;99.90;;;;;;4973904;28;20026;-68
2022/05/31 00:12:34;;;;;;;0.00;0.00;;;11.40;99.90;;;;;;4988769;28;20033;-69
2022/05/31 00:15:02;;;;;;;1.23;1.13;;;11.40;99.90;;;;;;4988983;28;20395;-68
2022/05/31 00:17:28;;;;;;;0.00;0.00;;;11.40;99.90;;;;;;4989568;28;20058;-68
2022/05/31 00:19:53;;;;;;;0.00;0.00;;;11.40;99.90;;;;;;4988044;28;20109;-68
2022/05/31 00:22:25;;;;;;;0.00;0.00;;;11.40;99.90;;;;;;4974042;28;20516;-69
2022/05/31 00:24:52;;;;;;;0.00;0.00;;;11.40;99.90;;;;;;4974110;28;20047;-68
2022/05/31 00:27:21;;;;;;;0.00;0.00;;;11.40;99.90;;;;;;4974607;28;20108;-68
2022/05/31 00:29:47;;;;;;;0.00;0.00;;;11.30;99.90;;;;;;4971805;28;20498;-68
2022/05/31 00:32:15;;;;;;;0.00;0.00;;;11.30;99.90;;;;;;4973872;28;20035;-68
2022/05/31 00:34:46;;;;;;;1.42;0.52;;;11.30;99.90;;;;;;4972624;28;20026;-68
2022/05/31 00:37:13;;;;;;;0.00;0.00;;;11.30;99.90;;;;;;4972791;28;20039;-68
2022/05/31 00:39:39;;;;;;;0.00;0.00;;;11.30;99.90;;;;;;4972006;28;20296;-68
2022/05/31 00:42:15;;;;;;;0.20;0.20;;;11.20;99.90;;;;;;4972546;28;20463;-68
2022/05/31 00:44:41;;;;;;;0.00;0.00;;;11.20;99.90;;;;;;4972688;28;20494;-68
2022/05/31 00:47:12;;;;;;;0.05;0.05;;;11.20;99.90;;;;;;4972345;28;20028;-68
2022/05/31 00:49:59;;;;;;;0.00;0.00;;;11.20;99.90;;;;;;4971904;28;20030;-68
2022/05/31 00:52:30;;;;;;;0.00;0.00;;;11.10;99.90;;;;;;4972175;28;20590;-67
2022/05/31 00:55:08;;;;;;;0.03;0.03;;;11.10;99.90;;;;;;4972630;28;20041;-68
2022/05/31 00:57:38;;;;;;;0.00;0.00;;;11.10;99.90;;;;;;4972655;28;20289;-68
2022/05/31 01:00:15;;;;;;;0.00;0.00;;;11.00;99.90;;;;;;4971681;28;20114;-68
2022/05/31 01:02:44;;;;;;;0.00;0.00;;;11.00;99.90;;;;;;4971681;28;20034;-68
2022/05/31 01:05:12;;;;;;;0.00;0.00;;;11.00;99.90;;;;;;4953428;28;20511;-68
2022/05/31 01:07:38;;;;;;;0.40;0.40;;;10.90;99.90;;;;;;4964583;28;20045;-68
2022/05/31 01:10:09;;;;;;;0.20;0.20;;;10.90;99.90;;;;;;4971179;28;20538;-68
2022/05/31 01:12:36;;;;;;;;;;;10.90;99.90;;;;;;4956875;28;20035;-68
2022/05/31 01:15:03;;;;;;;0.00;0.00;;;10.90;99.90;;;;;;4973253;28;19917;-68
2022/05/31 01:17:28;;;;;;;0.05;0.05;;;10.90;99.90;;;;;;4972843;28;20495;-67
2022/05/31 01:20:00;;;;;;;0.00;0.00;;;10.80;99.90;;;;;;4971515;28;20115;-68
2022/05/31 01:22:42;;;;;;;0.00;0.00;;;10.80;99.90;;;;;;4971545;28;20027;-67
2022/05/31 01:25:21;;;;;;;0.00;0.00;;;10.70;99.90;;;;;;4971768;28;20041;-68
2022/05/31 01:28:29;;;;;;;0.00;0.00;;;10.70;99.90;;;;;;4971654;28;20018;-68
2022/05/31 01:31:15;;;;;;;0.00;0.00;;;10.70;99.90;;;;;;4972062;28;20027;-68
2022/05/31 01:33:48;;;;;;;0.10;0.10;;;10.70;99.90;;;;;;4973000;28;20046;-68
2022/05/31 01:36:20;;;;;;;0.65;0.65;;;10.80;99.90;;;;;;4972977;28;20046;-68
2022/05/31 01:38:51;;;;;;;0.22;0.22;;;10.70;99.90;;;;;;4986570;28;20035;-67
2022/05/31 01:41:55;;;;;;;0.00;0.00;;;10.70;99.90;;;;;;4987076;28;20038;-68
2022/05/31 01:44:25;;;;;;;0.10;0.10;;;10.60;99.90;;;;;;4970689;28;20499;-68
2022/05/31 01:46:55;;;;;;;0.10;0.10;;;10.60;99.90;;;;;;4971368;28;20026;-68
2022/05/31 01:49:22;;;;;;;0.00;0.00;;;10.50;99.90;;;;;;4970224;28;20291;-68
2022/05/31 01:51:50;;;;;;;0.32;0.32;;;10.50;99.90;;;;;;4986791;28;20161;-67
2022/05/31 01:54:18;;;;;;;0.00;0.00;;;10.50;99.90;;;;;;4972279;28;20036;-68
2022/05/31 01:56:48;;;;;;;0.47;0.32;;;10.50;99.90;;;;;;4955702;28;20114;-68
2022/05/31 01:59:15;;;;;;;0.00;0.00;;;10.40;99.90;;;;;;4970863;28;20046;-68
2022/05/31 02:01:41;;;;;;;0.10;0.10;;;10.30;99.90;;;;;;4971228;28;20110;-68
2022/05/31 02:04:09;;;;;;;0.00;0.00;;;10.30;99.90;;;;;;4955082;28;20030;-68
2022/05/31 02:06:39;;;;;;;0.10;0.10;;;10.30;99.90;;;;;;4971210;28;20035;-68
2022/05/31 02:09:10;;;;;;;0.30;0.30;;;10.20;99.90;;;;;;4986530;28;20027;-68
2022/05/31 02:11:38;;;;;;;0.08;0.08;;;10.20;99.90;;;;;;4970562;28;20030;-68
2022/05/31 02:14:06;;;;;;;0.00;0.00;;;10.20;99.90;;;;;;4972316;28;20071;-68
2022/05/31 02:16:32;;;;;;;0.00;0.00;;;10.20;99.90;;;;;;4954727;28;20153;-68
2022/05/31 02:19:18;;;;;;;0.00;0.00;;;10.20;99.90;;;;;;4950985;29;20054;-68
2022/05/31 02:21:44;;;;;;;0.00;0.00;;;10.10;99.90;;;;;;4952229;29;20109;-68
2022/05/31 02:24:12;;;;;;;0.20;0.20;;;10.00;99.90;;;;;;4950633;29;20035;-68
2022/05/31 02:26:41;;;;;;;2.17;0.65;;;9.80;99.90;;;;;;4951531;29;20118;-69
2022/05/31 02:29:09;;;;;;;0.15;0.15;;;9.80;99.90;;;;;;4950711;29;20129;-68
2022/05/31 02:31:35;;;;;;;1.10;0.30;;;9.70;99.90;;;;;;4951336;29;20023;-68
2022/05/31 02:34:02;;;;;;;0.00;0.00;;;9.80;99.90;;;;;;4952291;28;20094;-68
2022/05/31 02:36:28;;;;;;;0.10;0.10;;;9.80;99.90;;;;;;4964613;28;20546;-68
2022/05/31 02:38:55;;;;;;;0.10;0.10;;;9.90;99.90;;;;;;4970819;28;20035;-68
2022/05/31 02:41:26;;;;;;;0.10;0.10;;;9.80;99.90;;;;;;4972135;28;20710;-68
2022/05/31 02:43:52;;;;;;;0.10;0.10;;;9.80;99.90;;;;;;4970494;28;20054;-67
2022/05/31 02:46:18;;;;;;;0.70;0.63;;;9.70;99.90;;;;;;4970731;28;20042;-67
2022/05/31 02:48:44;;;;;;;0.00;0.00;;;9.60;99.90;;;;;;4953779;28;20034;-67
2022/05/31 02:51:10;;;;;;;0.00;0.00;;;9.70;99.90;;;;;;4971575;28;20037;-67
2022/05/31 02:53:37;;;;;;;0.00;0.00;;;9.80;99.90;;;;;;4969841;28;20035;-67
2022/05/31 02:56:03;;;;;;;0.17;0.17;;;9.80;99.90;;;;;;4971651;28;20065;-67
2022/05/31 02:58:29;;;;;;;0.30;0.20;;;9.70;99.90;;;;;;4969775;28;20019;-67
2022/05/31 03:00:55;;;;;;;0.00;0.00;;;9.60;99.90;;;;;;4970112;28;20033;-68
2022/05/31 03:03:20;;;;;;;0.45;0.40;;;9.60;99.90;;;;;;4966099;28;20027;-68
2022/05/31 03:05:46;;;;;;;0.88;0.50;;;9.60;99.90;;;;;;4962976;28;20042;-68
2022/05/31 03:08:12;;;;;;;0.00;0.00;;;9.60;99.90;;;;;;4958498;28;20031;-67
2022/05/31 03:10:45;;;;;;;0.10;0.10;;;9.60;99.90;;;;;;4963504;28;20098;-68
2022/05/31 03:13:17;;;;;;;0.05;0.05;;;9.60;99.90;;;;;;4970084;28;20058;-67
2022/05/31 03:15:43;;;;;;;0.00;0.00;;;9.70;99.90;;;;;;4954478;28;20027;-67
2022/05/31 03:18:16;;;;;;;0.10;0.10;;;9.60;99.90;;;;;;4970370;28;20023;-68
2022/05/31 03:20:50;;;;;;;0.43;0.43;;;9.60;99.90;;;;;;4969986;28;20039;-68
2022/05/31 03:23:27;;;;;;;0.08;0.08;;;9.50;99.90;;;;;;4969576;28;20073;-68
2022/05/31 03:25:55;;;;;;;0.20;0.20;;;9.60;99.90;;;;;;4970042;28;20122;-68
2022/05/31 03:28:22;;;;;;;0.10;0.10;;;9.50;99.90;;;;;;4971444;28;20578;-68
2022/05/31 03:30:48;;;;;;;0.00;0.00;;;9.50;99.90;;;;;;4970654;28;20031;-68
2022/05/31 03:33:15;;;;;;;0.00;0.00;;;9.60;99.90;;;;;;4953841;28;20023;-68
2022/05/31 03:35:41;;;;;;;0.20;0.20;;;9.60;99.90;;;;;;4970760;28;20039;-67
2022/05/31 03:38:08;;;;;;;0.00;0.00;;;9.60;99.90;;;;;;4970119;28;20479;-67
2022/05/31 03:43:18;;;;;;;0.20;0.20;;;9.60;99.90;;;;;;4947022;28;20570;-69
2022/05/31 03:45:44;;;;;;;0.00;0.00;;;9.60;99.90;;;;;;4970882;28;20067;-68
2022/05/31 03:48:12;;;;;;;0.00;0.00;;;9.50;99.90;;;;;;4971013;28;20505;-66
2022/05/31 03:50:39;;;;;;;0.10;0.10;;;9.50;99.90;;;;;;4965610;28;20035;-66
2022/05/31 03:53:14;;;;;;;0.00;0.00;;;9.50;99.90;;;;;;4969173;28;20129;-66
2022/05/31 03:55:44;;;;;;;0.00;0.00;;;9.50;99.90;;;;;;4969923;28;21096;-64
2022/05/31 03:58:10;;;;;;;0.10;0.10;;;9.50;99.90;;;;;;4969596;28;20058;-68
2022/05/31 04:00:37;;;;;;;0.00;0.00;;;9.50;99.90;;;;;;4963420;28;20121;-67
2022/05/31 04:03:03;;;;;;;7.20;2.05;;;9.60;99.90;;;;;;4958940;28;20107;-66
2022/05/31 04:05:29;;;;;;;0.10;0.10;;;9.60;99.90;;;;;;4969872;28;20106;-67
2022/05/31 04:08:01;;;;;;;0.10;0.10;;;9.60;99.90;;;;;;4956480;28;20487;-67
2022/05/31 04:10:29;;;;;;;0.68;0.68;;;9.60;99.90;;;;;;4971942;28;20093;-66
2022/05/31 04:12:55;;;;;;;0.10;0.10;;;9.70;99.90;;;;;;4972551;28;20027;-66
2022/05/31 04:15:21;;;;;;;0.22;0.22;;;9.70;99.90;;;;;;4968749;28;20295;-67
2022/05/31 04:17:47;;;;;;;0.55;0.55;;;9.70;99.90;;;;;;4973679;28;20097;-68
2022/05/31 04:20:12;;;;;;;0.00;0.00;;;9.70;99.90;;;;;;4971735;28;20447;-67
2022/05/31 04:22:38;;;;;;;0.60;0.60;;;9.70;99.90;;;;;;4972341;28;20046;-66
2022/05/31 04:25:05;;;;;;;0.35;0.35;;;9.80;99.90;;;;;;4971446;28;20038;-67
2022/05/31 04:27:30;;;;;;;0.00;0.00;;;9.80;99.90;;;;;;4971222;28;20046;-67
2022/05/31 04:29:56;;;;;;;0.00;0.00;;;9.80;99.90;;;;;;4960525;28;20027;-67
2022/05/31 04:32:23;;;;;;;0.20;0.20;;;9.80;99.90;;;;;;4963119;28;20035;-66
2022/05/31 04:34:49;;;;;;;0.03;0.03;;;9.90;99.90;;;;;;4968871;28;20160;-66
2022/05/31 04:37:16;;;;;;;0.00;0.00;;;10.00;99.90;;;;;;4991874;28;20129;-65
2022/05/31 04:39:41;;;;;;;0.10;0.10;;;10.10;99.90;;;;;;4990881;28;20547;-68
2022/05/31 04:42:11;;;;;;;0.43;0.43;;;10.10;99.90;;;;;;4992366;28;20038;-66
2022/05/31 04:44:37;;;;;;;0.08;0.08;;;10.20;99.90;;;;;;4991085;28;20763;-67
2022/05/31 04:47:05;;;;;;;0.00;0.00;;;10.30;99.90;;;;;;4991274;28;20089;-66
2022/05/31 04:49:30;;;;;;;0.10;0.10;;;10.40;99.90;;;;;;4991893;28;20101;-67
2022/05/31 04:51:56;;;;;;;0.25;0.25;;;10.40;99.90;;;;;;4991001;28;20030;-66
2022/05/31 04:54:24;;;;;;;0.10;0.10;;;10.50;99.90;;;;;;4992060;28;20041;-66
2022/05/31 04:56:52;;;;;;;0.40;0.20;;;10.60;99.90;;;;;;4991915;28;20037;-65
2022/05/31 04:59:19;;;;;;;0.10;0.10;;;10.70;99.90;;;;;;4991819;28;20058;-65
2022/05/31 05:01:45;;;;;;;0.00;0.00;;;10.80;99.90;;;;;;4991602;28;20442;-67
2022/05/31 05:04:12;;;;;;;0.00;0.00;;;10.80;99.90;;;;;;4992201;28;20030;-66
2022/05/31 05:06:38;;;;;;;0.00;0.00;;;10.90;99.90;;;;;;4991653;28;20594;-66
2022/05/31 05:09:05;;;;;;;0.10;0.10;;;11.00;99.90;;;;;;4990465;28;20117;-66
2022/05/31 05:11:32;;;;;;;0.00;0.00;;;11.10;99.90;;;;;;4990705;28;20033;-68
2022/05/31 05:13:59;;;;;;;0.43;0.30;;;11.10;99.90;;;;;;4990422;28;20248;-65
2022/05/31 05:16:26;;;;;;;0.85;0.35;;;11.10;99.90;;;;;;4990658;28;20023;-66
2022/05/31 05:18:52;;;;;;;0.08;0.08;;;11.10;99.90;;;;;;4990451;28;20042;-66
2022/05/31 05:21:18;;;;;;;0.03;0.03;;;11.20;99.90;;;;;;4990693;28;20113;-65
2022/05/31 05:23:44;;;;;;;0.35;0.35;;;11.30;99.90;;;;;;4990376;28;20121;-65
2022/05/31 05:26:11;;;;;;;0.10;0.10;;;11.40;99.90;;;;;;4990496;28;20030;-66
2022/05/31 05:31:26;;;;;;;0.00;0.00;;;11.60;99.90;;;;;;4991772;28;20030;-66
2022/05/31 05:33:54;;;;;;;0.17;0.17;;;11.80;99.90;;;;;;4991792;28;20382;-67
2022/05/31 05:36:21;;;;;;;0.10;0.10;;;11.90;99.90;;;;;;4990303;28;20543;-66
2022/05/31 05:38:47;;;;;;;0.10;0.10;;;12.00;99.90;;;;;;4989638;28;20037;-67
2022/05/31 05:41:14;;;;;;;0.30;0.30;;;12.20;99.90;;;;;;4990240;28;20113;-69
2022/05/31 05:43:40;;;;;;;15.20;0.55;;;12.40;99.90;;;;;;4988247;28;20053;-71
2022/05/31 05:46:35;;;;;;;0.00;0.00;;;12.40;99.90;;;;;;4989782;28;20495;-70
2022/05/31 05:49:01;;;;;;;0.00;0.00;;;12.30;99.90;;;;;;4977939;28;20414;-68
2022/05/31 05:51:31;;;;;;;0.28;0.28;;;12.40;99.90;;;;;;4990416;28;20109;-69
2022/05/31 05:53:57;;;;;;;0.00;0.00;;;12.50;99.90;;;;;;4991313;28;20113;-69
2022/05/31 05:56:24;;;;;;;0.00;0.00;;;12.60;99.90;;;;;;4991488;28;20023;-69
2022/05/31 05:58:50;;;;;;;0.00;0.00;;;12.70;99.90;;;;;;4988905;28;20035;-69
2022/05/31 06:01:37;;;;;;;0.00;0.00;;;12.50;99.90;;;;;;4990591;28;20469;-71
2022/05/31 06:04:25;;;;;;;0.10;0.10;;;12.60;99.90;;;;;;4989812;28;20026;-68
2022/05/31 06:07:19;;;;;;;0.00;0.00;;;12.60;99.90;;;;;;4991413;28;20053;-69
2022/05/31 06:09:55;;;;;;;0.03;0.03;;;12.60;99.90;;;;;;4990152;28;20030;-70
2022/05/31 06:12:27;;;;;;;0.08;0.08;;;12.70;99.90;;;;;;5005918;28;20475;-69
2022/05/31 06:15:01;;;;;;;0.35;0.35;;;12.70;99.90;;;;;;4991256;28;20050;-69
2022/05/31 06:17:35;;;;;;;0.40;0.32;;;12.90;99.90;;;;;;5005718;28;20120;-69
2022/05/31 06:20:05;;;;;;;0.00;0.00;;;13.00;99.90;;;;;;4973433;28;20030;-69
2022/05/31 06:22:31;;;;;;;0.00;0.00;;;13.10;99.90;;;;;;4973175;28;20038;-68
2022/05/31 06:24:58;;;;;;;0.00;0.00;;;13.20;99.90;;;;;;4989147;28;20046;-69
2022/05/31 06:27:25;;;;;;;0.05;0.05;;;13.30;99.90;;;;;;4973257;28;20482;-69
2022/05/31 06:29:50;;;;;;;0.08;0.08;;;13.40;99.90;;;;;;4989151;28;20034;-69
2022/05/31 06:32:16;;;;;;;0.00;0.00;;;13.50;99.90;;;;;;4989290;28;20514;-69
2022/05/31 06:34:42;;;;;;;0.00;0.00;;;13.60;99.90;;;;;;4990640;28;20065;-67
2022/05/31 06:37:11;;;;;;;0.00;0.00;;;13.70;99.90;;;;;;4990264;28;20038;-72
2022/05/31 06:39:39;;;;;;;5.68;0.80;;;13.70;99.90;;;;;;4988126;28;20056;-71
2022/05/31 06:42:06;;;;;;;0.22;0.22;;;13.80;99.90;;;;;;4989175;28;20034;-69
2022/05/31 06:44:34;;;;;;;0.00;0.00;;;13.90;99.90;;;;;;4990566;28;20035;-70
2022/05/31 06:47:00;;;;;;;0.00;0.00;;;14.10;99.90;;;;;;4989191;28;20058;-70
2022/05/31 06:49:30;;;;;;;0.95;0.32;;;14.30;99.90;;;;;;4988717;28;20068;-69
2022/05/31 06:57:45;;;;;;;1.92;1.17;;;14.40;99.90;;;;;;4974790;28;20133;-69
2022/05/31 07:00:15;;;;;;;0.00;0.00;;;14.50;99.90;;;;;;4988803;28;20030;-70
2022/05/31 07:02:41;;;;;;;4.47;1.00;;;14.40;99.90;;;;;;4990596;28;20041;-71
2022/05/31 07:05:10;;;;;;;0.45;0.45;;;14.10;99.90;;;;;;4989285;28;20093;-69
2022/05/31 07:07:37;;;;;;;0.20;0.20;;;14.30;99.90;;;;;;5005343;28;20398;-69
2022/05/31 07:10:06;;;;;;;0.25;0.25;;;14.30;99.90;;;;;;5004353;28;20023;-69
2022/05/31 07:12:33;;;;;;;0.20;0.20;;;14.50;99.90;;;;;;4990506;28;20036;-70
2022/05/31 07:14:58;;;;;;;0.43;0.20;;;14.50;99.90;;;;;;5005074;28;20054;-70
2022/05/31 07:17:25;;;;;;;0.00;0.00;;;14.70;99.90;;;;;;4990679;28;20038;-70
2022/05/31 07:19:50;;;;;;;0.52;0.32;;;14.80;99.90;;;;;;4990100;28;20034;-70
2022/05/31 07:22:16;;;;;;;0.10;0.10;;;14.90;99.80;;;;;;4988978;28;20041;-70
2022/05/31 07:24:42;;;;;;;1.17;0.57;;;15.00;98.60;;;;;;4988794;28;20042;-69
2022/05/31 07:27:08;;;;;;;1.25;0.65;;;15.10;98.80;;;;;;4990577;28;20030;-70
2022/05/31 07:29:34;;;;;;;0.35;0.35;;;15.10;99.20;;;;;;4988358;28;20034;-69
2022/05/31 07:32:00;;;;;;;0.00;0.00;;;15.40;99.20;;;;;;4990211;28;20664;-70
2022/05/31 07:34:26;;;;;;;0.32;0.32;;;15.40;98.80;;;;;;4989065;28;20038;-70
2022/05/31 07:36:53;;;;;;;0.00;0.00;;;15.60;98.60;;;;;;4972888;28;20038;-71
2022/05/31 07:39:20;;;;;;;0.10;0.10;;;15.70;97.90;;;;;;5005931;28;20513;-71
2022/05/31 07:41:47;;;;;;;0.00;0.00;;;15.80;96.70;;;;;;4993873;28;20113;-71
2022/05/31 07:44:14;;;;;;;0.88;0.88;;;15.70;97.70;;;;;;4992536;28;20041;-71
2022/05/31 07:46:40;;;;;;;0.00;0.00;;;15.70;97.60;;;;;;5009060;28;20034;-71
2022/05/31 07:49:06;;;;;;;0.30;0.30;;;15.80;98.00;;;;;;5008439;28;20061;-71
2022/05/31 07:51:32;;;;;;;0.40;0.40;;;16.10;97.10;;;;;;4994044;28;20034;-70
2022/05/31 07:53:58;;;;;;;0.00;0.00;;;16.30;96.20;;;;;;4993379;28;20041;-71
2022/05/31 07:56:24;;;;;;;0.00;0.00;;;16.50;95.50;;;;;;4992220;28;20478;-71
2022/05/31 07:58:50;;;;;;;0.00;0.00;;;16.60;95.90;;;;;;4993073;28;20041;-71
2022/05/31 08:01:22;;;;;;;0.00;0.00;;;16.40;95.10;;;;;;4992708;28;20038;-71
2022/05/31 08:03:52;;;;;;;0.10;0.10;;;16.40;95.10;;;;;;4992129;28;20050;-71
2022/05/31 08:06:28;;;;;;;3.97;0.70;;;16.40;95.50;;;;;;4992849;28;20054;-71
2022/05/31 08:08:54;;;;;;;0.00;0.00;;;16.40;95.70;;;;;;4992874;28;20030;-70
2022/05/31 08:11:24;;;;;;;0.40;0.40;;;16.30;95.00;;;;;;4993830;28;20394;-71
2022/05/31 08:13:51;;;;;;;0.13;0.13;;;16.40;95.50;;;;;;5009090;28;20074;-71
2022/05/31 08:16:21;;;;;;;0.20;0.20;;;16.60;95.50;;;;;;5008058;28;20483;-71
2022/05/31 08:18:48;;;;;;;0.00;0.00;;;16.80;94.60;;;;;;4991805;28;20038;-70
2022/05/31 08:21:27;;;;;;;0.00;0.00;;;16.90;94.70;;;;;;4992232;28;20035;-70
2022/05/31 08:24:11;;;;;;;0.28;0.28;;;16.90;94.40;;;;;;4976399;28;20041;-70
2022/05/31 08:26:37;;;;;;;0.05;0.05;;;16.70;94.70;;;;;;4993195;28;20068;-70
2022/05/31 08:29:03;;;;;;;0.17;0.10;;;16.50;95.20;;;;;;4992468;28;20068;-71
2022/05/31 08:31:49;;;;;;;0.00;0.00;;;16.50;94.60;;;;;;4993252;28;20030;-70
2022/05/31 08:34:15;;;;;;;1.33;0.65;;;16.70;95.20;;;;;;4992901;28;20038;-71
2022/05/31 08:36:40;;;;;;;1.17;0.30;;;17.10;95.20;;;;;;4991930;28;20041;-71
2022/05/31 08:39:06;;;;;;;0.00;0.00;;;17.30;94.30;;;;;;4991190;28;20073;-71
2022/05/31 08:41:42;;;;;;;0.28;0.28;;;17.10;94.50;;;;;;5008067;28;20403;-71
2022/05/31 08:44:19;;;;;;;0.35;0.35;;;17.50;94.10;;;;;;5007080;28;20026;-71
2022/05/31 08:47:00;;;;;;;0.00;0.00;;;17.90;93.40;;;;;;5007820;28;20519;-70
2022/05/31 08:53:26;;;;;;;0.00;0.00;;;17.80;93.00;;;;;;4992734;28;20402;-70
2022/05/31 08:59:08;;;;;;;0.00;0.00;;;17.70;92.50;;;;;;4992173;28;20549;-71
2022/05/31 09:01:45;;;;;;;0.30;0.22;;;17.70;92.30;;;;;;4991244;28;20042;-71
2022/05/31 09:04:16;;;;;;;0.35;0.32;;;17.70;92.70;;;;;;5006379;28;20030;-71
2022/05/31 09:06:55;;;;;;;0.85;0.65;;;18.00;92.30;;;;;;5007864;28;20035;-71
2022/05/31 09:09:29;;;;;;;0.40;0.40;;;18.10;92.70;;;;;;5006210;28;20100;-71
2022/05/31 09:12:14;;;;;;;0.00;0.00;;;18.20;91.90;;;;;;5007190;28;20619;-70
2022/05/31 09:15:01;;;;;;;1.95;1.75;;;17.90;91.70;;;;;;5006618;28;20038;-70
2022/05/31 09:17:57;;;;;;;0.20;0.20;;;18.10;92.10;;;;;;5006465;28;20037;-70
2022/05/31 09:20:39;;;;;;;0.00;0.00;;;18.30;91.40;;;;;;4991752;28;20401;-70
2022/05/31 09:23:05;;;;;;;0.25;0.25;;;18.30;91.30;;;;;;4990864;28;20038;-70
2022/05/31 09:25:41;;;;;;;0.15;0.15;;;18.20;91.30;;;;;;4992022;28;20060;-70
2022/05/31 09:28:42;;;;;;;0.00;0.00;;;18.40;91.60;;;;;;4992406;28;20062;-71
2022/05/31 09:31:47;;;;;;;0.20;0.20;;;18.30;92.10;;;;;;4991005;28;20391;-71
2022/05/31 09:34:24;;;;;;;0.22;0.22;;;18.80;91.20;;;;;;4990766;28;20034;-71
2022/05/31 09:37:33;;;;;;;0.38;0.38;;;19.00;91.00;;;;;;4991922;28;20089;-71
2022/05/31 09:40:20;;;;;;;0.20;0.17;;;19.30;90.60;;;;;;4991498;28;20058;-70
2022/05/31 09:43:27;;;;;;;0.77;0.52;;;19.20;90.40;;;;;;4991940;28;20149;-70
2022/05/31 09:46:14;;;;;;;0.10;0.10;;;19.50;89.40;;;;;;5005505;28;20026;-71
2022/05/31 09:48:50;;;;;;;0.00;0.00;;;19.20;89.80;;;;;;4991186;28;20033;-71
2022/05/31 09:51:38;;;;;;;0.52;0.20;;;19.40;90.10;;;;;;4991691;28;20031;-71
2022/05/31 09:57:09;;;;;;;0.10;0.10;;;19.60;89.50;;;;;;4991046;28;20125;-71
2022/05/31 09:59:46;;;;;;;0.03;0.03;;;19.40;88.70;;;;;;4989408;28;20022;-71
2022/05/31 10:02:24;;;;;;;0.00;0.00;;;19.20;87.20;;;;;;4989891;28;20561;-71
2022/05/31 10:05:04;;;;;;;0.00;0.00;;;19.20;87.00;;;;;;4991303;28;20081;-72
2022/05/31 10:07:37;;;;;;;0.00;0.00;;;19.20;87.40;;;;;;5005033;28;20113;-72
2022/05/31 10:10:11;;;;;;;0.40;0.10;;;19.10;86.90;;;;;;4990806;28;20164;-64
2022/05/31 10:12:47;;;;;;;0.15;0.15;;;19.20;87.60;;;;;;4991038;28;20442;-64
2022/05/31 10:15:40;;;;;;;0.10;0.10;;;19.30;87.60;;;;;;4990998;28;20038;-69
2022/05/31 10:18:10;;;;;;;0.00;0.00;;;19.40;86.40;;;;;;4986603;28;20125;-66
2022/05/31 10:20:36;;;;;;;0.00;0.00;;;19.60;86.30;;;;;;4971310;28;20045;-67
2022/05/31 10:23:15;;;;;;;3.15;0.50;;;19.70;85.10;;;;;;4987085;23;20300;-67
2022/05/31 10:25:47;;;;;;;0.10;0.10;;;19.70;84.20;;;;;;4962689;28;20042;-66
2022/05/31 10:29:12;;;;;;;0.00;0.00;;;19.90;86.60;;;;;;4970670;28;20030;-67
2022/05/31 10:31:42;;;;;;;0.00;0.00;;;19.80;83.30;;;;;;4911691;29;20036;-67
2022/05/31 10:34:40;;;;;;;0.98;0.98;;;20.20;82.30;;;;;;4969262;28;20104;-67
2022/05/31 10:37:26;;;;;;;0.25;0.25;;;20.30;81.80;;;;;;5004727;28;20050;-67
2022/05/31 10:40:03;;;;;;;0.00;0.00;;;20.40;80.80;;;;;;4992642;28;20141;-68
2022/05/31 10:42:29;;;;;;;0.00;0.00;;;20.50;81.20;;;;;;4989819;28;20030;-67
2022/05/31 10:45:02;;;;;;;0.00;0.00;;;20.80;82.20;;;;;;4989273;28;20026;-67
2022/05/31 10:47:28;;;;;;;0.40;0.30;;;20.80;79.30;;;;;;4989734;28;20030;-67
2022/05/31 10:49:54;;;;;;;0.00;0.00;;;21.10;80.10;;;;;;4988947;28;20065;-67
2022/05/31 10:52:53;;;;;;;0.00;0.00;;;20.40;81.50;;;;;;4989526;28;20041;-67
2022/05/31 10:55:56;;;;;;;0.43;0.43;;;20.80;80.90;;;;;;4990744;28;20478;-68
2022/05/31 10:58:53;;;;;;;0.28;0.28;;;21.10;78.30;;;;;;4989240;28;20402;-68
2022/05/31 11:02:08;;;;;;;0.22;0.22;;;21.30;78.10;;;;;;4989374;28;20042;-68
2022/05/31 11:05:05;;;;;;;0.32;0.32;;;21.50;78.00;;;;;;4990099;28;20043;-68
2022/05/31 11:11:35;;;;;;;0.00;0.00;;;21.60;76.00;;;;;;4990078;28;20124;-68
2022/05/31 11:14:30;;;;;;;0.10;0.10;;;21.70;80.70;;;;;;4992316;28;20348;-68
2022/05/31 11:17:21;;;;;;;0.00;0.00;;;22.10;76.90;;;;;;4994588;28;20073;-68
2022/05/31 11:19:55;;;;;;;0.00;0.00;;;21.70;77.50;;;;;;4992725;28;20026;-67
2022/05/31 11:22:51;;;;;;;0.03;0.03;;;22.20;77.40;;;;;;4993151;28;20037;-67
2022/05/31 11:25:23;;;;;;;0.10;0.00;;;22.50;75.80;;;;;;4993663;28;20030;-66
2022/05/31 11:28:36;;;;;;;0.00;0.00;;;22.70;75.60;;;;;;4993241;28;20641;-66
2022/05/31 11:31:19;;;;;;;0.00;0.00;;;22.50;75.30;;;;;;4984477;28;20030;-67
2022/05/31 11:34:15;;;;;;;0.05;0.05;;;22.70;74.40;;;;;;4994062;28;20044;-67
2022/05/31 11:37:00;;;;;;;0.00;0.00;;;22.80;72.30;;;;;;4979076;28;20517;-67
2022/05/31 11:39:44;;;;;;;0.20;0.20;;;23.40;71.90;;;;;;4993613;28;20544;-68
2022/05/31 11:42:34;;;;;;;0.00;0.00;;;23.80;71.10;;;;;;4993856;28;20030;-68
2022/05/31 11:45:09;;;;;;;0.00;0.00;;;23.30;71.80;;;;;;4993790;28;20516;-67
2022/05/31 11:47:57;;;;;;;0.10;0.10;;;23.70;70.80;;;;;;4992848;28;20096;-68
2022/05/31 11:50:54;;;;;;;0.75;0.55;;;23.70;65.10;;;;;;4993015;28;20395;-67
2022/05/31 11:54:10;;;;;;;0.00;0.00;;;23.90;64.40;;;;;;4990384;28;20049;-68
2022/05/31 11:57:02;;;;;;;0.00;0.00;;;24.20;63.00;;;;;;4993860;28;20042;-68
2022/05/31 11:59:54;;;;;;;0.28;0.25;;;24.40;61.90;;;;;;4963072;28;20098;-68
2022/05/31 12:02:59;;;;;;;0.10;0.10;;;24.60;62.20;;;;;;4983687;28;20095;-67
2022/05/31 12:05:30;;;;;;;0.43;0.43;;;22.80;64.50;;;;;;4992638;28;20034;-68
2022/05/31 12:08:02;;;;;;;0.10;0.10;;;23.60;65.90;;;;;;4992261;28;20038;-68
2022/05/31 12:10:59;;;;;;;0.03;0.03;;;23.90;64.70;;;;;;4991595;28;20080;-68
2022/05/31 12:13:27;;;;;;;0.35;0.35;;;24.40;61.80;;;;;;4992395;28;20053;-68
2022/05/31 12:15:54;;;;;;;0.70;0.55;;;24.60;59.00;;;;;;4992081;28;20038;-66
2022/05/31 12:18:49;;;;;;;1.00;0.82;;;24.40;58.20;;;;;;4993658;28;20072;-66
2022/05/31 12:21:36;;;;;;;0.32;0.13;;;23.90;59.20;;;;;;4993921;28;20528;-68
2022/05/31 12:24:27;;;;;;;0.20;0.20;;;23.90;59.50;;;;;;4992855;28;20046;-67
2022/05/31 12:27:28;;;;;;;0.00;0.00;;;23.50;59.10;;;;;;4993310;28;20495;-67
2022/05/31 12:30:19;;;;;;;0.35;0.35;;;23.60;59.50;;;;;;4991309;28;20061;-67
2022/05/31 12:32:48;;;;;;;0.00;0.00;;;23.60;59.20;;;;;;4992631;28;20092;-67
2022/05/31 12:35:32;;;;;;;0.00;0.00;;;23.40;59.40;;;;;;4989348;28;20058;-67
2022/05/31 12:38:01;;;;;;;0.00;0.00;;;23.40;60.60;;;;;;4988786;28;20077;-67
2022/05/31 12:40:32;;;;;;;0.00;0.00;;;23.60;59.30;;;;;;4981495;28;20110;-67
2022/05/31 12:43:00;;;;;;;0.52;0.47;;;23.40;58.90;;;;;;4993104;28;20022;-67
2022/05/31 12:45:34;;;;;;;0.00;0.00;;;23.30;60.70;;;;;;4991461;28;20065;-67
2022/05/31 12:48:12;;;;;;;0.80;0.20;;;23.10;60.00;;;;;;4992899;28;20038;-67
2022/05/31 12:50:55;;;;;;;0.20;0.20;;;23.00;59.40;;;;;;4990975;28;20537;-66
2022/05/31 12:53:49;;;;;;;8.93;0.73;;;23.00;58.10;;;;;;4992541;28;20486;-66
2022/05/31 12:56:34;;;;;;;0.00;0.00;;;23.00;59.00;;;;;;4992411;28;20044;-66
2022/05/31 12:59:01;;;;;;;0.15;0.15;;;23.10;58.60;;;;;;4992598;28;20030;-66
2022/05/31 13:01:27;;;;;;;0.00;0.00;;;23.20;58.60;;;;;;4992751;28;20034;-67
2022/05/31 13:04:07;;;;;;;0.13;0.13;;;23.30;59.00;;;;;;4965416;28;20064;-67
2022/05/31 13:07:02;;;;;;;0.00;0.00;;;23.20;59.60;;;;;;4990578;28;20026;-67
2022/05/31 13:09:40;;;;;;;0.10;0.10;;;23.20;60.10;;;;;;4991262;28;20115;-66
2022/05/31 13:21:06;;;;;;;0.00;0.00;;;23.20;61.90;;;;;;4971502;28;20030;-66
2022/05/31 13:23:41;;;;;;;0.00;0.00;;;23.00;60.70;;;;;;4972410;28;20031;-66
2022/05/31 13:26:25;;;;;;;0.10;0.10;;;23.70;60.20;;;;;;4971615;28;20027;-68
2022/05/31 13:28:56;;;;;;;0.00;0.00;;;23.60;61.40;;;;;;4970930;28;20073;-66
2022/05/31 13:31:27;;;;;;;0.00;0.00;;;24.70;59.80;;;;;;4951200;28;20039;-66
2022/05/31 13:34:04;;;;;;;0.00;0.00;;;25.50;57.40;;;;;;4964946;28;20026;-67
2022/05/31 13:36:39;;;;;;;0.00;0.00;;;26.20;57.30;;;;;;4989242;28;20038;-66
2022/05/31 13:39:09;;;;;;;3.72;1.35;;;26.70;56.40;;;;;;4991241;28;20027;-67
2022/05/31 13:41:57;;;;;;;4.45;0.35;;;27.70;55.30;;;;;;4990558;28;20478;-66
2022/05/31 13:44:31;;;;;;;0.00;0.00;;;27.80;53.90;;;;;;4990528;28;20412;-67
2022/05/31 13:47:11;;;;;;;3.60;1.55;;;27.20;54.00;;;;;;4990595;28;20118;-67
2022/05/31 13:49:44;;;;;;;1.77;0.93;;;25.90;54.00;;;;;;4989305;28;20026;-67
2022/05/31 13:52:19;;;;;;;1.77;0.52;;;25.70;53.80;;;;;;4991931;28;20033;-67
2022/05/31 13:54:45;;;;;;;0.00;0.00;;;24.90;54.80;;;;;;4991426;28;20112;-67